createdAt,value
2022-08-30T00:00:00.344Z,16.40
2022-08-30T00:02:29.205Z,16.40
2022-08-30T00:05:01.372Z,16.40
2022-08-30T00:07:29.926Z,16.40
2022-08-30T00:09:59.803Z,16.40
2022-08-30T00:12:28.435Z,16.30
2022-08-30T00:14:56.888Z,16.30
2022-08-30T00:17:25.353Z,16.30
2022-08-30T00:19:53.775Z,16.20
2022-08-30T00:22:22.244Z,16.20
2022-08-30T00:24:50.684Z,16.20
2022-08-30T00:27:20.528Z,16.20
2022-08-30T00:29:49.085Z,16.10
2022-08-30T00:32:18.403Z,16.10
2022-08-30T00:34:46.918Z,16.10
2022-08-30T00:37:15.709Z,16.00
2022-08-30T00:39:44.465Z,16.00
2022-08-30T00:42:14.164Z,16.00
2022-08-30T00:44:44.900Z,16.00
2022-08-30T00:47:13.707Z,15.90
2022-08-30T00:49:46.246Z,15.90
2022-08-30T00:52:16.049Z,15.90
2022-08-30T00:54:46.273Z,15.90
2022-08-30T00:57:16.323Z,15.80
2022-08-30T00:59:49.964Z,15.80
2022-08-30T01:02:21.139Z,15.80
2022-08-30T01:04:51.392Z,15.80
2022-08-30T01:07:20.074Z,15.80
2022-08-30T01:09:48.566Z,15.80
2022-08-30T01:12:17.616Z,15.70
2022-08-30T01:14:48.552Z,15.70
2022-08-30T01:17:18.116Z,15.70
2022-08-30T01:19:54.153Z,15.70
2022-08-30T01:22:29.276Z,15.70
2022-08-30T01:25:01.348Z,15.60
2022-08-30T01:27:31.874Z,15.60
2022-08-30T01:30:00.603Z,15.60
2022-08-30T01:32:30.168Z,15.60
2022-08-30T01:34:59.462Z,15.60
2022-08-30T01:37:31.723Z,15.60
2022-08-30T01:40:02.043Z,15.60
2022-08-30T01:42:30.834Z,15.60
2022-08-30T01:44:59.319Z,15.50
2022-08-30T01:47:27.756Z,15.50
2022-08-30T01:49:56.264Z,15.50
2022-08-30T01:52:25.536Z,15.50
2022-08-30T01:54:54.558Z,15.50
2022-08-30T01:57:26.775Z,15.40
2022-08-30T01:59:55.497Z,15.40
2022-08-30T02:02:27.888Z,15.40
2022-08-30T02:04:57.327Z,15.40
2022-08-30T02:07:27.340Z,15.40
2022-08-30T02:09:56.774Z,15.40
2022-08-30T02:12:26.902Z,15.30
2022-08-30T02:14:55.661Z,15.30
2022-08-30T02:17:24.739Z,15.30
2022-08-30T02:19:53.303Z,15.30
2022-08-30T02:22:21.771Z,15.30
2022-08-30T02:24:50.217Z,15.30
2022-08-30T02:27:18.835Z,15.20
2022-08-30T02:29:48.620Z,15.30
2022-08-30T02:32:17.067Z,15.20
2022-08-30T02:34:47.180Z,15.20
2022-08-30T02:37:15.736Z,15.10
2022-08-30T02:39:44.244Z,15.20
2022-08-30T02:42:12.711Z,15.10
2022-08-30T02:44:41.146Z,15.10
2022-08-30T02:47:10.977Z,15.00
2022-08-30T02:49:39.399Z,15.00
2022-08-30T02:52:07.836Z,15.00
2022-08-30T02:54:36.367Z,15.00
2022-08-30T02:57:06.622Z,15.00
2022-08-30T02:59:37.789Z,15.00
2022-08-30T03:02:07.542Z,15.00
2022-08-30T03:04:38.308Z,15.00
2022-08-30T03:07:06.853Z,15.00
2022-08-30T03:09:35.448Z,14.90
2022-08-30T03:12:04.876Z,14.90
2022-08-30T03:14:35.467Z,14.90
2022-08-30T03:17:04.115Z,14.90
2022-08-30T03:19:32.507Z,14.80
2022-08-30T03:22:02.366Z,14.80
2022-08-30T03:24:31.358Z,14.80
2022-08-30T03:26:59.936Z,14.80
2022-08-30T03:29:29.634Z,14.80
2022-08-30T03:31:58.612Z,14.80
2022-08-30T03:34:28.004Z,14.70
2022-08-30T03:36:58.388Z,14.70
2022-08-30T03:39:28.946Z,14.70
2022-08-30T03:41:57.395Z,14.70
2022-08-30T03:44:26.275Z,14.60
2022-08-30T03:46:54.743Z,14.70
2022-08-30T03:49:24.408Z,14.70
2022-08-30T03:51:52.941Z,14.70
2022-08-30T03:54:23.431Z,14.70
2022-08-30T03:56:54.391Z,14.70
2022-08-30T03:59:22.967Z,14.60
2022-08-30T04:01:51.522Z,14.60
2022-08-30T04:04:21.085Z,14.60
2022-08-30T04:06:50.596Z,14.60
2022-08-30T04:09:20.204Z,14.60
2022-08-30T04:11:48.800Z,14.50
2022-08-30T04:14:18.925Z,14.60
2022-08-30T04:16:47.444Z,14.50
2022-08-30T04:19:16.209Z,14.50
2022-08-30T04:21:44.795Z,14.50
2022-08-30T04:24:13.784Z,14.50
2022-08-30T04:26:42.264Z,14.50
2022-08-30T04:29:16.246Z,14.50
2022-08-30T04:31:46.310Z,14.50
2022-08-30T04:34:15.724Z,14.50
2022-08-30T04:36:48.157Z,14.40
2022-08-30T04:39:17.288Z,14.60
2022-08-30T04:41:45.751Z,14.40
2022-08-30T04:44:19.427Z,14.40
2022-08-30T04:46:49.565Z,14.40
2022-08-30T04:49:18.029Z,14.50
2022-08-30T04:51:46.690Z,14.40
2022-08-30T04:54:15.152Z,14.40
2022-08-30T04:56:43.743Z,14.30
2022-08-30T04:59:12.174Z,14.30
2022-08-30T05:01:45.750Z,14.30
2022-08-30T05:04:16.811Z,14.30
2022-08-30T05:06:45.275Z,14.30
2022-08-30T05:09:13.952Z,14.30
2022-08-30T05:11:43.287Z,14.30
2022-08-30T05:14:12.100Z,14.40
2022-08-30T05:16:41.508Z,14.40
2022-08-30T05:19:10.263Z,14.40
2022-08-30T05:21:41.485Z,14.40
2022-08-30T05:24:09.934Z,14.40
2022-08-30T05:26:40.838Z,14.40
2022-08-30T05:29:09.358Z,14.40
2022-08-30T05:31:37.900Z,14.40
2022-08-30T05:34:06.850Z,14.50
2022-08-30T05:36:37.978Z,14.50
2022-08-30T05:39:09.144Z,14.50
2022-08-30T05:41:39.019Z,14.50
2022-08-30T05:44:09.371Z,14.50
2022-08-30T05:46:39.549Z,14.50
2022-08-30T05:49:08.784Z,14.60
2022-08-30T05:51:41.137Z,14.60
2022-08-30T05:54:14.876Z,14.60
2022-08-30T05:56:46.185Z,14.60
2022-08-30T05:59:15.688Z,14.70
2022-08-30T06:01:46.306Z,14.70
2022-08-30T06:04:15.795Z,14.70
2022-08-30T06:06:45.307Z,14.70
2022-08-30T06:09:15.794Z,14.70
2022-08-30T06:11:44.607Z,14.80
2022-08-30T06:14:13.613Z,14.80
2022-08-30T06:16:44.075Z,14.90
2022-08-30T06:19:14.483Z,15.00
2022-08-30T06:21:44.675Z,15.10
2022-08-30T06:24:15.144Z,15.20
2022-08-30T06:26:45.530Z,15.30
2022-08-30T06:29:20.056Z,15.50
2022-08-30T06:31:48.664Z,15.60
2022-08-30T06:34:17.829Z,15.80
2022-08-30T06:36:46.783Z,15.90
2022-08-30T06:39:16.669Z,16.10
2022-08-30T06:41:45.293Z,16.20
2022-08-30T06:44:25.487Z,16.40
2022-08-30T06:46:54.228Z,16.90
2022-08-30T06:49:22.770Z,17.50
2022-08-30T06:51:51.461Z,18.10
2022-08-30T06:54:21.454Z,18.40
2022-08-30T06:56:58.151Z,18.60
2022-08-30T06:59:28.348Z,18.60
2022-08-30T07:01:57.647Z,18.70
2022-08-30T07:04:27.062Z,18.70
2022-08-30T07:06:55.665Z,18.70
2022-08-30T07:09:26.284Z,18.70
2022-08-30T07:11:55.157Z,18.80
2022-08-30T07:14:23.970Z,19.10
2022-08-30T07:16:52.403Z,19.10
2022-08-30T07:19:21.014Z,19.30
2022-08-30T07:21:50.255Z,19.60
2022-08-30T07:24:19.069Z,19.70
2022-08-30T07:26:51.960Z,19.80
2022-08-30T07:29:21.476Z,20.00
2022-08-30T07:31:50.013Z,20.20
2022-08-30T07:34:20.464Z,20.50
2022-08-30T07:36:50.774Z,20.60
2022-08-30T07:39:19.204Z,20.90
2022-08-30T07:41:50.762Z,20.90
2022-08-30T07:44:19.259Z,21.00
2022-08-30T07:46:51.732Z,21.30
2022-08-30T07:49:20.539Z,21.40
2022-08-30T07:51:48.971Z,21.40
2022-08-30T07:54:17.380Z,21.40
2022-08-30T07:56:45.851Z,21.50
2022-08-30T07:59:15.643Z,21.60
2022-08-30T08:01:44.146Z,21.70
2022-08-30T08:04:12.636Z,21.80
2022-08-30T08:06:41.386Z,21.90
2022-08-30T08:09:10.363Z,22.10
2022-08-30T08:11:39.795Z,22.00
2022-08-30T08:14:09.577Z,22.20
2022-08-30T08:16:39.679Z,22.30
2022-08-30T08:19:09.280Z,22.40
2022-08-30T08:21:38.288Z,22.60
2022-08-30T08:24:07.206Z,22.70
2022-08-30T08:26:36.874Z,22.80
2022-08-30T08:29:06.773Z,23.00
2022-08-30T08:31:35.364Z,23.10
2022-08-30T08:34:06.668Z,23.20
2022-08-30T08:36:36.407Z,23.40
2022-08-30T08:39:07.340Z,23.60
2022-08-30T08:41:51.148Z,23.80
2022-08-30T08:44:34.430Z,23.90
2022-08-30T08:47:12.342Z,24.00
2022-08-30T08:49:47.239Z,24.00
2022-08-30T08:52:38.024Z,24.10
2022-08-30T08:55:11.281Z,24.10
2022-08-30T08:57:40.299Z,24.20
2022-08-30T09:00:10.849Z,24.20
2022-08-30T09:02:44.343Z,24.30
2022-08-30T09:05:18.471Z,24.40
2022-08-30T09:07:52.050Z,24.40
2022-08-30T09:10:40.431Z,24.60
2022-08-30T09:13:13.829Z,24.50
2022-08-30T09:15:42.938Z,24.70
2022-08-30T09:18:19.102Z,24.80
2022-08-30T09:20:52.355Z,25.00
2022-08-30T09:23:28.358Z,25.20
2022-08-30T09:26:00.252Z,25.30
2022-08-30T09:28:30.722Z,25.40
2022-08-30T09:31:11.339Z,25.50
2022-08-30T09:33:40.761Z,25.50
2022-08-30T09:36:23.112Z,25.50
2022-08-30T09:39:01.489Z,25.50
2022-08-30T09:41:38.223Z,25.50
2022-08-30T09:44:09.999Z,25.50
2022-08-30T09:46:47.626Z,25.50
2022-08-30T09:49:36.743Z,25.50
2022-08-30T09:52:35.719Z,25.50
2022-08-30T09:55:18.095Z,25.50
2022-08-30T09:57:53.297Z,25.40
2022-08-30T10:00:23.975Z,25.20
2022-08-30T10:03:04.513Z,25.10
2022-08-30T10:05:41.859Z,25.00
2022-08-30T10:08:19.090Z,25.10
2022-08-30T10:10:52.502Z,25.10
2022-08-30T10:13:58.736Z,25.30
2022-08-30T10:16:43.958Z,25.40
2022-08-30T10:19:25.036Z,25.50
2022-08-30T10:22:00.145Z,25.60
2022-08-30T10:24:34.916Z,25.60
2022-08-30T10:27:08.875Z,25.60
2022-08-30T10:29:43.676Z,25.60
2022-08-30T10:32:19.545Z,25.50
2022-08-30T10:34:52.492Z,25.50
2022-08-30T10:37:24.609Z,25.40
2022-08-30T10:39:59.232Z,25.40
2022-08-30T10:42:33.143Z,25.30
2022-08-30T10:45:11.796Z,25.30
2022-08-30T10:47:43.836Z,25.30
2022-08-30T10:50:17.403Z,25.30
2022-08-30T10:52:54.900Z,25.40
2022-08-30T10:55:28.414Z,25.50
2022-08-30T10:58:01.350Z,25.50
2022-08-30T11:00:31.750Z,25.70
2022-08-30T11:03:31.575Z,25.80
2022-08-30T11:06:15.053Z,25.90
2022-08-30T11:09:03.762Z,26.10
2022-08-30T11:11:42.678Z,26.30
2022-08-30T11:14:15.133Z,26.50
2022-08-30T11:16:46.503Z,26.50
2022-08-30T11:19:21.614Z,26.60
2022-08-30T11:21:51.431Z,26.70
2022-08-30T11:24:21.972Z,26.80
2022-08-30T11:26:58.731Z,26.90
2022-08-30T11:29:38.253Z,26.90
2022-08-30T11:32:41.998Z,27.00
2022-08-30T11:35:11.963Z,27.00
2022-08-30T11:37:44.436Z,27.20
2022-08-30T11:40:49.249Z,27.40
2022-08-30T11:43:57.231Z,27.50
2022-08-30T11:46:41.058Z,27.70
2022-08-30T11:49:46.282Z,27.90
2022-08-30T11:52:36.137Z,28.00
2022-08-30T11:55:28.247Z,28.10
2022-08-30T11:58:07.266Z,28.10
2022-08-30T12:00:47.829Z,28.20
2022-08-30T12:03:33.734Z,28.30
2022-08-30T12:06:05.475Z,28.30
2022-08-30T12:08:58.038Z,28.30
2022-08-30T12:11:57.863Z,28.40
2022-08-30T12:14:41.188Z,28.50
2022-08-30T12:17:39.618Z,28.50
2022-08-30T12:20:18.438Z,28.60
2022-08-30T12:22:47.141Z,28.70
2022-08-30T12:25:26.284Z,28.80
2022-08-30T12:28:10.826Z,28.70
2022-08-30T12:30:40.909Z,28.70
2022-08-30T12:33:14.171Z,28.70
2022-08-30T12:35:44.655Z,28.80
2022-08-30T12:38:27.630Z,28.70
2022-08-30T12:41:00.170Z,28.70
2022-08-30T12:43:38.806Z,28.50
2022-08-30T12:46:15.439Z,28.50
2022-08-30T12:48:46.450Z,28.40
2022-08-30T12:51:38.894Z,28.40
2022-08-30T12:54:17.548Z,28.50
2022-08-30T12:56:56.405Z,28.70
2022-08-30T12:59:55.406Z,28.90
2022-08-30T13:02:28.488Z,29.00
2022-08-30T13:04:59.372Z,29.00
2022-08-30T13:07:32.682Z,28.90
2022-08-30T13:10:15.191Z,28.80
2022-08-30T13:13:02.955Z,28.70
2022-08-30T13:15:33.622Z,28.50
2022-08-30T13:18:29.921Z,28.40
2022-08-30T13:21:23.641Z,28.30
2022-08-30T13:23:58.393Z,28.20
2022-08-30T13:26:28.961Z,28.10
2022-08-30T13:28:59.591Z,28.10
2022-08-30T13:31:29.509Z,28.10
2022-08-30T13:33:59.841Z,28.10
2022-08-30T13:36:36.161Z,28.10
2022-08-30T13:39:06.201Z,27.90
2022-08-30T13:41:34.972Z,27.80
2022-08-30T13:44:20.259Z,27.80
2022-08-30T13:46:54.378Z,27.70
2022-08-30T13:52:21.495Z,27.40
2022-08-30T13:54:51.135Z,27.30
2022-08-30T14:00:17.167Z,26.90
2022-08-30T14:02:51.534Z,26.80
2022-08-30T14:11:05.132Z,26.40
2022-08-30T14:13:33.822Z,26.40
2022-08-30T14:18:56.668Z,26.10
2022-08-30T14:21:25.634Z,25.90
2022-08-30T14:23:57.834Z,25.80
2022-08-30T14:26:33.033Z,25.70
2022-08-30T14:29:03.557Z,25.70
2022-08-30T14:31:32.670Z,25.70
2022-08-30T14:34:03.405Z,25.60
2022-08-30T14:36:34.118Z,25.60
2022-08-30T14:39:08.429Z,25.40
2022-08-30T14:41:43.634Z,25.30
2022-08-30T14:44:13.480Z,25.30
2022-08-30T14:46:42.938Z,25.10
2022-08-30T14:49:12.793Z,25.00
2022-08-30T14:51:42.320Z,24.90
2022-08-30T14:54:13.479Z,24.80
2022-08-30T14:56:42.679Z,24.80
2022-08-30T14:59:13.239Z,24.70
2022-08-30T15:01:42.981Z,24.70
2022-08-30T15:04:12.948Z,24.60
2022-08-30T15:06:43.481Z,24.50
2022-08-30T15:09:18.457Z,24.50
2022-08-30T15:11:52.134Z,24.50
2022-08-30T15:14:21.464Z,24.50
2022-08-30T15:16:50.013Z,24.50
2022-08-30T15:19:19.268Z,24.50
2022-08-30T15:21:49.676Z,24.40
2022-08-30T15:24:29.304Z,24.40
2022-08-30T15:26:59.482Z,24.30
2022-08-30T15:29:30.561Z,24.20
2022-08-30T15:32:02.102Z,24.20
2022-08-30T15:34:32.103Z,24.10
2022-08-30T15:37:00.705Z,24.10
2022-08-30T15:39:30.535Z,24.00
2022-08-30T15:42:01.276Z,24.00
2022-08-30T15:44:30.886Z,24.00
2022-08-30T15:46:59.767Z,23.90
2022-08-30T15:49:28.481Z,23.90
2022-08-30T15:52:01.781Z,23.90
2022-08-30T15:54:32.120Z,23.80
2022-08-30T15:57:00.651Z,23.80
2022-08-30T15:59:31.489Z,23.70
2022-08-30T16:02:00.172Z,23.70
2022-08-30T16:04:28.820Z,23.60
2022-08-30T16:06:57.339Z,23.60
2022-08-30T16:09:30.234Z,23.70
2022-08-30T16:12:04.716Z,23.60
2022-08-30T16:14:33.650Z,23.60
2022-08-30T16:17:03.122Z,23.60
2022-08-30T16:19:31.658Z,23.50
2022-08-30T16:22:00.357Z,23.60
2022-08-30T16:24:28.803Z,23.50
2022-08-30T16:26:57.631Z,23.50
2022-08-30T16:29:27.537Z,23.40
2022-08-30T16:31:57.967Z,23.40
2022-08-30T16:34:26.583Z,23.40
2022-08-30T16:36:55.424Z,23.30
2022-08-30T16:39:24.009Z,23.30
2022-08-30T16:41:52.715Z,23.30
2022-08-30T16:44:21.188Z,23.20
2022-08-30T16:46:52.669Z,23.30
2022-08-30T16:49:24.939Z,23.40
2022-08-30T16:51:54.755Z,23.20
2022-08-30T16:54:23.861Z,23.20
2022-08-30T16:56:52.413Z,23.20
2022-08-30T16:59:20.952Z,23.10
2022-08-30T17:01:51.738Z,23.10
2022-08-30T17:04:21.031Z,23.00
2022-08-30T17:06:50.398Z,22.90
2022-08-30T17:09:19.596Z,22.80
2022-08-30T17:11:49.428Z,22.80
2022-08-30T17:14:27.549Z,22.50
2022-08-30T17:17:00.380Z,22.60
2022-08-30T17:19:29.676Z,22.40
2022-08-30T17:21:58.663Z,22.50
2022-08-30T17:24:28.063Z,22.40
2022-08-30T17:26:58.293Z,22.20
2022-08-30T17:29:27.137Z,22.30
2022-08-30T17:31:56.961Z,22.10
2022-08-30T17:34:28.257Z,22.10
2022-08-30T17:36:59.768Z,22.10
2022-08-30T17:39:28.968Z,22.00
2022-08-30T17:41:57.542Z,22.00
2022-08-30T17:44:28.903Z,21.90
2022-08-30T17:46:59.705Z,21.90
2022-08-30T17:49:30.548Z,21.80
2022-08-30T17:52:01.838Z,21.70
2022-08-30T17:54:32.105Z,21.60
2022-08-30T17:57:00.945Z,21.70
2022-08-30T17:59:31.725Z,21.70
2022-08-30T18:02:02.142Z,21.50
2022-08-30T18:04:32.528Z,21.40
2022-08-30T18:07:01.084Z,21.40
2022-08-30T18:09:33.805Z,21.30
2022-08-30T18:12:02.694Z,21.30
2022-08-30T18:14:31.576Z,21.20
2022-08-30T18:17:00.156Z,21.20
2022-08-30T18:19:32.049Z,21.10
2022-08-30T18:22:03.219Z,21.00
2022-08-30T18:24:32.383Z,21.00
2022-08-30T18:27:03.364Z,20.90
2022-08-30T18:29:32.086Z,20.80
2022-08-30T18:32:02.135Z,20.80
2022-08-30T18:34:33.051Z,20.80
2022-08-30T18:37:01.605Z,20.70
2022-08-30T18:39:34.521Z,20.60
2022-08-30T18:42:04.018Z,20.60
2022-08-30T18:44:33.488Z,20.50
2022-08-30T18:47:05.690Z,20.40
2022-08-30T18:49:36.352Z,20.40
2022-08-30T18:52:07.300Z,20.50
2022-08-30T18:54:38.822Z,20.20
2022-08-30T18:57:09.882Z,20.20
2022-08-30T18:59:38.775Z,20.10
2022-08-30T19:02:09.369Z,20.20
2022-08-30T19:04:39.831Z,20.00
2022-08-30T19:07:13.333Z,19.90
2022-08-30T19:09:43.865Z,19.90
2022-08-30T19:12:14.741Z,19.80
2022-08-30T19:14:44.587Z,19.80
2022-08-30T19:17:13.547Z,19.70
2022-08-30T19:19:48.680Z,19.70
2022-08-30T19:22:19.823Z,19.60
2022-08-30T19:24:49.806Z,19.60
2022-08-30T19:27:21.529Z,19.60
2022-08-30T19:29:53.747Z,19.50
2022-08-30T19:32:22.466Z,19.60
2022-08-30T19:34:52.334Z,19.50
2022-08-30T19:37:21.664Z,19.40
2022-08-30T19:39:50.115Z,19.40
2022-08-30T19:42:20.403Z,19.40
2022-08-30T19:44:51.609Z,19.40
2022-08-30T19:47:20.676Z,19.40
2022-08-30T19:49:49.107Z,19.30
2022-08-30T19:52:21.775Z,19.30
2022-08-30T19:54:50.250Z,19.30
2022-08-30T19:57:18.664Z,19.30
2022-08-30T19:59:47.108Z,19.30
2022-08-30T20:02:15.867Z,19.40
2022-08-30T20:04:44.369Z,19.20
2022-08-30T20:07:13.525Z,19.20
2022-08-30T20:09:43.373Z,19.20
2022-08-30T20:12:11.905Z,19.30
2022-08-30T20:14:42.562Z,19.20
2022-08-30T20:17:11.695Z,19.10
2022-08-30T20:19:40.579Z,19.10
2022-08-30T20:22:09.336Z,19.10
2022-08-30T20:24:38.401Z,19.10
2022-08-30T20:27:12.447Z,19.10
2022-08-30T20:29:41.854Z,19.10
2022-08-30T20:32:10.280Z,19.10
2022-08-30T20:34:39.559Z,19.10
2022-08-30T20:37:09.810Z,19.10
2022-08-30T20:39:39.198Z,19.00
2022-08-30T20:42:07.918Z,19.00
2022-08-30T20:44:38.731Z,19.00
2022-08-30T20:47:07.523Z,18.90
2022-08-30T20:49:36.506Z,18.90
2022-08-30T20:52:06.088Z,18.90
2022-08-30T20:54:38.637Z,18.80
2022-08-30T20:57:07.808Z,18.80
2022-08-30T20:59:37.707Z,18.80
2022-08-30T21:02:06.509Z,18.70
2022-08-30T21:04:35.045Z,18.70
2022-08-30T21:07:03.527Z,18.60
2022-08-30T21:09:31.997Z,18.60
2022-08-30T21:12:00.437Z,18.50
2022-08-30T21:14:28.903Z,18.50
2022-08-30T21:16:58.785Z,18.60
2022-08-30T21:19:27.447Z,18.50
2022-08-30T21:21:55.893Z,18.40
2022-08-30T21:24:24.638Z,18.40
2022-08-30T21:26:54.158Z,18.40
2022-08-30T21:29:22.597Z,18.40
2022-08-30T21:31:51.097Z,18.30
2022-08-30T21:34:21.140Z,18.30
2022-08-30T21:36:48.962Z,18.20
2022-08-30T21:39:20.856Z,18.20
2022-08-30T21:41:50.552Z,18.20
2022-08-30T21:44:21.767Z,18.10
2022-08-30T21:46:52.155Z,18.10
2022-08-30T21:49:24.044Z,18.00
2022-08-30T21:51:53.641Z,18.10
2022-08-30T21:54:23.165Z,18.00
2022-08-30T21:56:53.324Z,18.00
2022-08-30T21:59:22.518Z,18.00
2022-08-30T22:01:51.132Z,17.90
2022-08-30T22:04:26.141Z,17.90
2022-08-30T22:06:54.976Z,17.90
2022-08-30T22:09:26.086Z,17.80
2022-08-30T22:11:55.555Z,17.80
2022-08-30T22:14:26.409Z,17.80
2022-08-30T22:16:55.226Z,17.80
2022-08-30T22:19:25.555Z,17.70
2022-08-30T22:22:00.592Z,17.70
2022-08-30T22:24:32.741Z,17.80
2022-08-30T22:27:02.890Z,17.60
2022-08-30T22:29:31.554Z,17.60
2022-08-30T22:32:00.318Z,17.60
2022-08-30T22:34:31.852Z,17.60
2022-08-30T22:37:00.688Z,17.50
2022-08-30T22:39:29.207Z,17.50
2022-08-30T22:41:57.645Z,17.50
2022-08-30T22:44:26.085Z,17.50
2022-08-30T22:46:54.521Z,17.40
2022-08-30T22:49:22.963Z,17.30
2022-08-30T22:51:52.799Z,17.40
2022-08-30T22:54:21.273Z,17.30
2022-08-30T22:56:49.920Z,17.30
2022-08-30T22:59:18.424Z,17.30
2022-08-30T23:01:47.181Z,17.30
2022-08-30T23:04:15.728Z,17.20
2022-08-30T23:06:49.722Z,17.10
2022-08-30T23:09:20.327Z,17.20
2022-08-30T23:11:48.856Z,17.10
2022-08-30T23:14:17.319Z,17.10
2022-08-30T23:16:46.839Z,17.10
2022-08-30T23:19:15.770Z,17.00
2022-08-30T23:21:44.749Z,17.00
2022-08-30T23:24:30.694Z,17.00
2022-08-30T23:27:18.216Z,17.00
2022-08-30T23:30:03.923Z,16.90
2022-08-30T23:32:49.891Z,17.00
2022-08-30T23:35:35.801Z,16.80
2022-08-30T23:38:23.841Z,16.80
2022-08-30T23:41:10.022Z,16.80
2022-08-30T23:43:57.468Z,16.80
2022-08-30T23:46:43.560Z,16.70
2022-08-30T23:49:29.423Z,16.70
2022-08-30T23:52:15.245Z,16.70
2022-08-30T23:55:01.287Z,16.70
2022-08-30T23:57:47.154Z,16.60
